sensor_id;sensor_type;location;lat;lon;timestamp;P1;durP1;ratioP1;P2;durP2;ratioP2
5620;SDS011;2832;50.864;12.186;2022-10-16T00:02:14;0.87;;;0.87;;
5620;SDS011;2832;50.864;12.186;2022-10-16T00:04:43;0.90;;;0.90;;
5620;SDS011;2832;50.864;12.186;2022-10-16T00:07:14;0.80;;;0.80;;
5620;SDS011;2832;50.864;12.186;2022-10-16T00:09:41;0.90;;;0.90;;
5620;SDS011;2832;50.864;12.186;2022-10-16T00:12:09;0.90;;;0.90;;
5620;SDS011;2832;50.864;12.186;2022-10-16T00:14:38;0.90;;;0.90;;
5620;SDS011;2832;50.864;12.186;2022-10-16T00:17:07;0.80;;;0.80;;
5620;SDS011;2832;50.864;12.186;2022-10-16T00:19:35;0.90;;;0.90;;
5620;SDS011;2832;50.864;12.186;2022-10-16T00:22:04;0.90;;;0.90;;
5620;SDS011;2832;50.864;12.186;2022-10-16T00:24:32;0.90;;;0.90;;
5620;SDS011;2832;50.864;12.186;2022-10-16T00:27:01;0.80;;;0.80;;
5620;SDS011;2832;50.864;12.186;2022-10-16T00:29:29;0.90;;;0.90;;
5620;SDS011;2832;50.864;12.186;2022-10-16T00:31:56;0.80;;;0.80;;
5620;SDS011;2832;50.864;12.186;2022-10-16T00:34:24;0.90;;;0.90;;
5620;SDS011;2832;50.864;12.186;2022-10-16T00:36:52;0.90;;;0.90;;
5620;SDS011;2832;50.864;12.186;2022-10-16T00:39:22;0.90;;;0.90;;
5620;SDS011;2832;50.864;12.186;2022-10-16T00:41:50;0.90;;;0.90;;
5620;SDS011;2832;50.864;12.186;2022-10-16T00:47:15;0.90;;;0.90;;
5620;SDS011;2832;50.864;12.186;2022-10-16T00:49:47;0.80;;;0.80;;
5620;SDS011;2832;50.864;12.186;2022-10-16T00:52:19;0.90;;;0.90;;
5620;SDS011;2832;50.864;12.186;2022-10-16T00:54:49;0.90;;;0.90;;
5620;SDS011;2832;50.864;12.186;2022-10-16T00:57:18;0.90;;;0.90;;
5620;SDS011;2832;50.864;12.186;2022-10-16T00:59:46;0.90;;;0.90;;
5620;SDS011;2832;50.864;12.186;2022-10-16T01:02:15;0.90;;;0.90;;
5620;SDS011;2832;50.864;12.186;2022-10-16T01:04:47;0.90;;;0.90;;
5620;SDS011;2832;50.864;12.186;2022-10-16T01:07:20;0.87;;;0.87;;
5620;SDS011;2832;50.864;12.186;2022-10-16T01:09:57;0.90;;;0.90;;
5620;SDS011;2832;50.864;12.186;2022-10-16T01:12:38;0.90;;;0.90;;
5620;SDS011;2832;50.864;12.186;2022-10-16T01:15:13;0.90;;;0.90;;
5620;SDS011;2832;50.864;12.186;2022-10-16T01:17:48;0.90;;;0.90;;
5620;SDS011;2832;50.864;12.186;2022-10-16T01:20:24;0.90;;;0.90;;
5620;SDS011;2832;50.864;12.186;2022-10-16T01:23:06;0.90;;;0.90;;
5620;SDS011;2832;50.864;12.186;2022-10-16T01:25:52;0.80;;;0.80;;
5620;SDS011;2832;50.864;12.186;2022-10-16T01:28:41;0.80;;;0.80;;
5620;SDS011;2832;50.864;12.186;2022-10-16T01:31:13;0.90;;;0.90;;
5620;SDS011;2832;50.864;12.186;2022-10-16T01:33:47;0.20;;;0.20;;
5620;SDS011;2832;50.864;12.186;2022-10-16T01:36:26;0.20;;;0.20;;
5620;SDS011;2832;50.864;12.186;2022-10-16T01:39:02;0.20;;;0.20;;
5620;SDS011;2832;50.864;12.186;2022-10-16T01:41:31;0.20;;;0.20;;
5620;SDS011;2832;50.864;12.186;2022-10-16T01:44:05;0.10;;;0.10;;
5620;SDS011;2832;50.864;12.186;2022-10-16T01:46:36;0.10;;;0.10;;
5620;SDS011;2832;50.864;12.186;2022-10-16T01:49:06;0.10;;;0.10;;
5620;SDS011;2832;50.864;12.186;2022-10-16T01:51:37;0.10;;;0.10;;
5620;SDS011;2832;50.864;12.186;2022-10-16T01:54:05;0.90;;;0.90;;
5620;SDS011;2832;50.864;12.186;2022-10-16T01:56:35;0.90;;;0.90;;
5620;SDS011;2832;50.864;12.186;2022-10-16T01:59:09;0.80;;;0.80;;
5620;SDS011;2832;50.864;12.186;2022-10-16T02:01:40;0.90;;;0.90;;
5620;SDS011;2832;50.864;12.186;2022-10-16T02:04:15;0.80;;;0.80;;
5620;SDS011;2832;50.864;12.186;2022-10-16T02:06:45;0.90;;;0.90;;
5620;SDS011;2832;50.864;12.186;2022-10-16T02:09:13;0.80;;;0.80;;
5620;SDS011;2832;50.864;12.186;2022-10-16T02:11:43;0.80;;;0.80;;
5620;SDS011;2832;50.864;12.186;2022-10-16T02:14:12;0.80;;;0.80;;
5620;SDS011;2832;50.864;12.186;2022-10-16T02:16:40;0.90;;;0.90;;
5620;SDS011;2832;50.864;12.186;2022-10-16T02:19:10;0.80;;;0.80;;
5620;SDS011;2832;50.864;12.186;2022-10-16T02:21:40;0.90;;;0.90;;
5620;SDS011;2832;50.864;12.186;2022-10-16T02:24:12;0.80;;;0.80;;
5620;SDS011;2832;50.864;12.186;2022-10-16T02:26:45;0.90;;;0.90;;
5620;SDS011;2832;50.864;12.186;2022-10-16T02:29:21;0.80;;;0.80;;
5620;SDS011;2832;50.864;12.186;2022-10-16T02:31:52;0.90;;;0.90;;
5620;SDS011;2832;50.864;12.186;2022-10-16T02:34:25;0.80;;;0.80;;
5620;SDS011;2832;50.864;12.186;2022-10-16T02:36:54;0.80;;;0.80;;
5620;SDS011;2832;50.864;12.186;2022-10-16T02:39:23;0.90;;;0.90;;
5620;SDS011;2832;50.864;12.186;2022-10-16T02:41:52;0.90;;;0.90;;
5620;SDS011;2832;50.864;12.186;2022-10-16T02:44:22;0.80;;;0.80;;
5620;SDS011;2832;50.864;12.186;2022-10-16T02:46:50;0.83;;;0.83;;
5620;SDS011;2832;50.864;12.186;2022-10-16T02:49:18;0.87;;;0.87;;
5620;SDS011;2832;50.864;12.186;2022-10-16T02:51:45;0.90;;;0.90;;
5620;SDS011;2832;50.864;12.186;2022-10-16T02:54:13;0.90;;;0.90;;
5620;SDS011;2832;50.864;12.186;2022-10-16T02:56:40;0.87;;;0.87;;
5620;SDS011;2832;50.864;12.186;2022-10-16T02:59:08;0.80;;;0.80;;
5620;SDS011;2832;50.864;12.186;2022-10-16T03:01:37;0.90;;;0.90;;
5620;SDS011;2832;50.864;12.186;2022-10-16T03:04:05;0.90;;;0.90;;
5620;SDS011;2832;50.864;12.186;2022-10-16T03:06:33;0.90;;;0.90;;
5620;SDS011;2832;50.864;12.186;2022-10-16T03:09:01;0.90;;;0.90;;
5620;SDS011;2832;50.864;12.186;2022-10-16T03:11:29;0.90;;;0.90;;
5620;SDS011;2832;50.864;12.186;2022-10-16T03:13:56;0.90;;;0.90;;
5620;SDS011;2832;50.864;12.186;2022-10-16T03:16:24;0.90;;;0.90;;
5620;SDS011;2832;50.864;12.186;2022-10-16T03:18:53;0.90;;;0.90;;
5620;SDS011;2832;50.864;12.186;2022-10-16T03:21:21;0.80;;;0.80;;
5620;SDS011;2832;50.864;12.186;2022-10-16T03:23:49;0.90;;;0.90;;
5620;SDS011;2832;50.864;12.186;2022-10-16T03:26:16;0.90;;;0.90;;
5620;SDS011;2832;50.864;12.186;2022-10-16T03:28:44;0.80;;;0.80;;
5620;SDS011;2832;50.864;12.186;2022-10-16T03:31:11;0.90;;;0.90;;
5620;SDS011;2832;50.864;12.186;2022-10-16T03:33:39;0.80;;;0.80;;
5620;SDS011;2832;50.864;12.186;2022-10-16T03:36:08;0.90;;;0.90;;
5620;SDS011;2832;50.864;12.186;2022-10-16T03:38:37;0.90;;;0.90;;
5620;SDS011;2832;50.864;12.186;2022-10-16T03:41:04;0.90;;;0.90;;
5620;SDS011;2832;50.864;12.186;2022-10-16T03:43:33;0.90;;;0.90;;
5620;SDS011;2832;50.864;12.186;2022-10-16T03:46:01;0.80;;;0.80;;
5620;SDS011;2832;50.864;12.186;2022-10-16T03:48:29;0.90;;;0.90;;
5620;SDS011;2832;50.864;12.186;2022-10-16T03:50:59;0.90;;;0.90;;
5620;SDS011;2832;50.864;12.186;2022-10-16T03:53:28;0.90;;;0.90;;
5620;SDS011;2832;50.864;12.186;2022-10-16T03:55:55;0.87;;;0.87;;
5620;SDS011;2832;50.864;12.186;2022-10-16T03:58:24;0.90;;;0.90;;
5620;SDS011;2832;50.864;12.186;2022-10-16T04:00:51;0.90;;;0.90;;
5620;SDS011;2832;50.864;12.186;2022-10-16T04:03:19;0.90;;;0.90;;
5620;SDS011;2832;50.864;12.186;2022-10-16T04:05:47;0.90;;;0.90;;
5620;SDS011;2832;50.864;12.186;2022-10-16T04:08:15;0.90;;;0.90;;
5620;SDS011;2832;50.864;12.186;2022-10-16T04:10:44;0.90;;;0.90;;
5620;SDS011;2832;50.864;12.186;2022-10-16T04:13:11;0.93;;;0.93;;
5620;SDS011;2832;50.864;12.186;2022-10-16T04:15:39;0.90;;;0.90;;
5620;SDS011;2832;50.864;12.186;2022-10-16T04:18:07;0.90;;;0.90;;
5620;SDS011;2832;50.864;12.186;2022-10-16T04:20:34;0.90;;;0.90;;
5620;SDS011;2832;50.864;12.186;2022-10-16T04:23:04;0.70;;;0.70;;
5620;SDS011;2832;50.864;12.186;2022-10-16T04:25:31;0.87;;;0.87;;
5620;SDS011;2832;50.864;12.186;2022-10-16T04:28:01;0.87;;;0.87;;
5620;SDS011;2832;50.864;12.186;2022-10-16T04:30:29;0.80;;;0.80;;
5620;SDS011;2832;50.864;12.186;2022-10-16T04:32:59;0.80;;;0.80;;
5620;SDS011;2832;50.864;12.186;2022-10-16T04:35:26;0.90;;;0.90;;
5620;SDS011;2832;50.864;12.186;2022-10-16T04:37:54;0.80;;;0.80;;
5620;SDS011;2832;50.864;12.186;2022-10-16T04:40:23;0.90;;;0.90;;
5620;SDS011;2832;50.864;12.186;2022-10-16T04:42:51;0.90;;;0.90;;
5620;SDS011;2832;50.864;12.186;2022-10-16T04:45:20;0.90;;;0.90;;
5620;SDS011;2832;50.864;12.186;2022-10-16T04:47:48;0.87;;;0.87;;
5620;SDS011;2832;50.864;12.186;2022-10-16T04:50:15;0.80;;;0.80;;
5620;SDS011;2832;50.864;12.186;2022-10-16T04:52:43;0.90;;;0.90;;
5620;SDS011;2832;50.864;12.186;2022-10-16T04:55:11;0.90;;;0.90;;
5620;SDS011;2832;50.864;12.186;2022-10-16T04:57:38;0.90;;;0.90;;
5620;SDS011;2832;50.864;12.186;2022-10-16T05:00:07;0.80;;;0.80;;
5620;SDS011;2832;50.864;12.186;2022-10-16T05:02:37;0.90;;;0.90;;
5620;SDS011;2832;50.864;12.186;2022-10-16T05:05:05;0.83;;;0.83;;
5620;SDS011;2832;50.864;12.186;2022-10-16T05:07:33;0.83;;;0.83;;
5620;SDS011;2832;50.864;12.186;2022-10-16T05:10:00;0.90;;;0.90;;
5620;SDS011;2832;50.864;12.186;2022-10-16T05:12:31;0.90;;;0.90;;
5620;SDS011;2832;50.864;12.186;2022-10-16T05:14:59;0.90;;;0.90;;
5620;SDS011;2832;50.864;12.186;2022-10-16T05:17:27;0.80;;;0.80;;
5620;SDS011;2832;50.864;12.186;2022-10-16T05:19:56;0.80;;;0.80;;
5620;SDS011;2832;50.864;12.186;2022-10-16T05:22:24;0.80;;;0.80;;
5620;SDS011;2832;50.864;12.186;2022-10-16T05:24:51;0.90;;;0.90;;
5620;SDS011;2832;50.864;12.186;2022-10-16T05:27:19;0.80;;;0.80;;
5620;SDS011;2832;50.864;12.186;2022-10-16T05:29:47;0.90;;;0.90;;
5620;SDS011;2832;50.864;12.186;2022-10-16T05:32:16;0.90;;;0.90;;
5620;SDS011;2832;50.864;12.186;2022-10-16T05:34:45;0.90;;;0.90;;
5620;SDS011;2832;50.864;12.186;2022-10-16T05:37:14;0.90;;;0.90;;
5620;SDS011;2832;50.864;12.186;2022-10-16T05:39:42;0.90;;;0.90;;
5620;SDS011;2832;50.864;12.186;2022-10-16T05:42:09;0.90;;;0.90;;
5620;SDS011;2832;50.864;12.186;2022-10-16T05:44:37;0.80;;;0.80;;
5620;SDS011;2832;50.864;12.186;2022-10-16T05:47:05;0.80;;;0.80;;
5620;SDS011;2832;50.864;12.186;2022-10-16T05:49:32;0.80;;;0.80;;
5620;SDS011;2832;50.864;12.186;2022-10-16T05:52:00;0.93;;;0.93;;
5620;SDS011;2832;50.864;12.186;2022-10-16T05:54:30;0.90;;;0.90;;
5620;SDS011;2832;50.864;12.186;2022-10-16T05:56:58;0.90;;;0.90;;
5620;SDS011;2832;50.864;12.186;2022-10-16T05:59:25;0.90;;;0.90;;
5620;SDS011;2832;50.864;12.186;2022-10-16T06:01:53;0.90;;;0.90;;
5620;SDS011;2832;50.864;12.186;2022-10-16T06:04:21;0.80;;;0.80;;
5620;SDS011;2832;50.864;12.186;2022-10-16T06:06:49;0.90;;;0.90;;
5620;SDS011;2832;50.864;12.186;2022-10-16T06:09:16;0.83;;;0.83;;
5620;SDS011;2832;50.864;12.186;2022-10-16T06:11:45;0.90;;;0.90;;
5620;SDS011;2832;50.864;12.186;2022-10-16T06:14:13;0.90;;;0.90;;
5620;SDS011;2832;50.864;12.186;2022-10-16T06:16:41;0.90;;;0.90;;
5620;SDS011;2832;50.864;12.186;2022-10-16T06:19:09;0.80;;;0.80;;
5620;SDS011;2832;50.864;12.186;2022-10-16T06:21:36;0.90;;;0.90;;
5620;SDS011;2832;50.864;12.186;2022-10-16T06:24:04;1.00;;;1.00;;
5620;SDS011;2832;50.864;12.186;2022-10-16T06:26:32;0.90;;;0.90;;
5620;SDS011;2832;50.864;12.186;2022-10-16T06:29:01;1.00;;;1.00;;
5620;SDS011;2832;50.864;12.186;2022-10-16T06:31:29;0.90;;;0.90;;
5620;SDS011;2832;50.864;12.186;2022-10-16T06:33:59;0.90;;;0.90;;
5620;SDS011;2832;50.864;12.186;2022-10-16T06:36:30;0.90;;;0.90;;
5620;SDS011;2832;50.864;12.186;2022-10-16T06:38:58;0.90;;;0.90;;
5620;SDS011;2832;50.864;12.186;2022-10-16T06:41:25;0.90;;;0.90;;
5620;SDS011;2832;50.864;12.186;2022-10-16T06:43:53;0.90;;;0.90;;
5620;SDS011;2832;50.864;12.186;2022-10-16T06:46:23;0.90;;;0.90;;
5620;SDS011;2832;50.864;12.186;2022-10-16T06:48:52;0.90;;;0.90;;
5620;SDS011;2832;50.864;12.186;2022-10-16T06:51:21;0.90;;;0.90;;
5620;SDS011;2832;50.864;12.186;2022-10-16T06:53:50;0.90;;;0.90;;
5620;SDS011;2832;50.864;12.186;2022-10-16T06:56:20;0.90;;;0.90;;
5620;SDS011;2832;50.864;12.186;2022-10-16T06:58:49;0.90;;;0.90;;
5620;SDS011;2832;50.864;12.186;2022-10-16T07:01:17;0.90;;;0.90;;
5620;SDS011;2832;50.864;12.186;2022-10-16T07:03:47;0.90;;;0.90;;
5620;SDS011;2832;50.864;12.186;2022-10-16T07:06:16;0.90;;;0.90;;
5620;SDS011;2832;50.864;12.186;2022-10-16T07:08:45;0.90;;;0.90;;
5620;SDS011;2832;50.864;12.186;2022-10-16T07:11:14;0.80;;;0.80;;
5620;SDS011;2832;50.864;12.186;2022-10-16T07:13:44;0.83;;;0.83;;
5620;SDS011;2832;50.864;12.186;2022-10-16T07:16:14;0.90;;;0.90;;
5620;SDS011;2832;50.864;12.186;2022-10-16T07:18:43;0.90;;;0.90;;
5620;SDS011;2832;50.864;12.186;2022-10-16T07:21:18;0.87;;;0.87;;
5620;SDS011;2832;50.864;12.186;2022-10-16T07:23:54;0.80;;;0.80;;
5620;SDS011;2832;50.864;12.186;2022-10-16T07:26:23;0.90;;;0.90;;
5620;SDS011;2832;50.864;12.186;2022-10-16T07:28:52;0.83;;;0.83;;
5620;SDS011;2832;50.864;12.186;2022-10-16T07:31:20;0.90;;;0.90;;
5620;SDS011;2832;50.864;12.186;2022-10-16T07:33:49;0.90;;;0.90;;
5620;SDS011;2832;50.864;12.186;2022-10-16T07:36:19;0.90;;;0.90;;
5620;SDS011;2832;50.864;12.186;2022-10-16T07:38:47;0.80;;;0.80;;
5620;SDS011;2832;50.864;12.186;2022-10-16T07:41:16;0.90;;;0.90;;
5620;SDS011;2832;50.864;12.186;2022-10-16T07:43:47;0.90;;;0.90;;
5620;SDS011;2832;50.864;12.186;2022-10-16T07:46:15;0.90;;;0.90;;
5620;SDS011;2832;50.864;12.186;2022-10-16T07:48:44;0.90;;;0.90;;
5620;SDS011;2832;50.864;12.186;2022-10-16T07:51:15;0.80;;;0.80;;
5620;SDS011;2832;50.864;12.186;2022-10-16T07:53:46;0.90;;;0.90;;
5620;SDS011;2832;50.864;12.186;2022-10-16T07:56:15;0.90;;;0.90;;
5620;SDS011;2832;50.864;12.186;2022-10-16T07:58:44;0.90;;;0.90;;
5620;SDS011;2832;50.864;12.186;2022-10-16T08:01:13;0.80;;;0.80;;
5620;SDS011;2832;50.864;12.186;2022-10-16T08:03:42;0.93;;;0.93;;
5620;SDS011;2832;50.864;12.186;2022-10-16T08:06:10;0.90;;;0.90;;
5620;SDS011;2832;50.864;12.186;2022-10-16T08:08:40;0.90;;;0.90;;
5620;SDS011;2832;50.864;12.186;2022-10-16T08:11:11;0.80;;;0.80;;
5620;SDS011;2832;50.864;12.186;2022-10-16T08:13:41;0.70;;;0.70;;
5620;SDS011;2832;50.864;12.186;2022-10-16T08:16:09;0.90;;;0.90;;
5620;SDS011;2832;50.864;12.186;2022-10-16T08:18:37;0.90;;;0.90;;
5620;SDS011;2832;50.864;12.186;2022-10-16T08:21:07;0.83;;;0.83;;
5620;SDS011;2832;50.864;12.186;2022-10-16T08:23:39;0.83;;;0.83;;
5620;SDS011;2832;50.864;12.186;2022-10-16T08:26:07;0.90;;;0.90;;
5620;SDS011;2832;50.864;12.186;2022-10-16T08:28:37;0.90;;;0.90;;
5620;SDS011;2832;50.864;12.186;2022-10-16T08:31:06;0.80;;;0.80;;
5620;SDS011;2832;50.864;12.186;2022-10-16T08:33:36;0.90;;;0.90;;
5620;SDS011;2832;50.864;12.186;2022-10-16T08:36:05;0.87;;;0.87;;
5620;SDS011;2832;50.864;12.186;2022-10-16T08:38:33;0.90;;;0.90;;
5620;SDS011;2832;50.864;12.186;2022-10-16T08:41:04;0.90;;;0.90;;
5620;SDS011;2832;50.864;12.186;2022-10-16T08:43:53;0.90;;;0.90;;
5620;SDS011;2832;50.864;12.186;2022-10-16T08:46:36;0.80;;;0.80;;
5620;SDS011;2832;50.864;12.186;2022-10-16T08:49:13;0.90;;;0.90;;
5620;SDS011;2832;50.864;12.186;2022-10-16T08:51:41;0.90;;;0.90;;
5620;SDS011;2832;50.864;12.186;2022-10-16T08:54:15;0.93;;;0.93;;
5620;SDS011;2832;50.864;12.186;2022-10-16T08:56:54;0.90;;;0.90;;
5620;SDS011;2832;50.864;12.186;2022-10-16T08:59:23;1.00;;;1.00;;
5620;SDS011;2832;50.864;12.186;2022-10-16T09:01:54;0.80;;;0.80;;
5620;SDS011;2832;50.864;12.186;2022-10-16T09:04:38;0.90;;;0.90;;
5620;SDS011;2832;50.864;12.186;2022-10-16T09:07:21;0.90;;;0.90;;
5620;SDS011;2832;50.864;12.186;2022-10-16T09:10:09;0.90;;;0.90;;
5620;SDS011;2832;50.864;12.186;2022-10-16T09:12:48;0.90;;;0.90;;
5620;SDS011;2832;50.864;12.186;2022-10-16T09:15:27;0.90;;;0.90;;
5620;SDS011;2832;50.864;12.186;2022-10-16T09:18:00;0.90;;;0.90;;
5620;SDS011;2832;50.864;12.186;2022-10-16T09:20:34;0.90;;;0.90;;
5620;SDS011;2832;50.864;12.186;2022-10-16T09:23:14;1.00;;;1.00;;
5620;SDS011;2832;50.864;12.186;2022-10-16T09:25:44;0.90;;;0.90;;
5620;SDS011;2832;50.864;12.186;2022-10-16T09:28:14;0.90;;;0.90;;
5620;SDS011;2832;50.864;12.186;2022-10-16T09:30:44;0.90;;;0.90;;
5620;SDS011;2832;50.864;12.186;2022-10-16T09:33:13;1.00;;;1.00;;
5620;SDS011;2832;50.864;12.186;2022-10-16T09:35:43;0.80;;;0.80;;
5620;SDS011;2832;50.864;12.186;2022-10-16T09:38:20;0.90;;;0.90;;
5620;SDS011;2832;50.864;12.186;2022-10-16T09:40:49;0.90;;;0.90;;
5620;SDS011;2832;50.864;12.186;2022-10-16T09:43:22;0.90;;;0.90;;
5620;SDS011;2832;50.864;12.186;2022-10-16T09:45:58;0.90;;;0.90;;
5620;SDS011;2832;50.864;12.186;2022-10-16T09:48:28;0.90;;;0.90;;
5620;SDS011;2832;50.864;12.186;2022-10-16T09:51:01;0.90;;;0.90;;
5620;SDS011;2832;50.864;12.186;2022-10-16T09:53:41;0.90;;;0.90;;
5620;SDS011;2832;50.864;12.186;2022-10-16T09:56:11;0.90;;;0.90;;
5620;SDS011;2832;50.864;12.186;2022-10-16T09:58:49;0.90;;;0.90;;
5620;SDS011;2832;50.864;12.186;2022-10-16T10:01:21;0.90;;;0.90;;
5620;SDS011;2832;50.864;12.186;2022-10-16T10:03:55;0.80;;;0.80;;
5620;SDS011;2832;50.864;12.186;2022-10-16T10:06:27;0.90;;;0.90;;
5620;SDS011;2832;50.864;12.186;2022-10-16T10:08:57;0.90;;;0.90;;
5620;SDS011;2832;50.864;12.186;2022-10-16T10:14:27;0.90;;;0.90;;
5620;SDS011;2832;50.864;12.186;2022-10-16T10:17:08;0.90;;;0.90;;
5620;SDS011;2832;50.864;12.186;2022-10-16T10:19:38;1.00;;;1.00;;
5620;SDS011;2832;50.864;12.186;2022-10-16T10:22:21;0.90;;;0.90;;
5620;SDS011;2832;50.864;12.186;2022-10-16T10:27:52;0.83;;;0.83;;
5620;SDS011;2832;50.864;12.186;2022-10-16T10:30:27;0.80;;;0.80;;
5620;SDS011;2832;50.864;12.186;2022-10-16T10:33:09;0.90;;;0.90;;
5620;SDS011;2832;50.864;12.186;2022-10-16T10:35:45;0.90;;;0.90;;
5620;SDS011;2832;50.864;12.186;2022-10-16T10:38:25;0.80;;;0.80;;
5620;SDS011;2832;50.864;12.186;2022-10-16T10:41:01;0.90;;;0.90;;
5620;SDS011;2832;50.864;12.186;2022-10-16T10:43:43;0.90;;;0.90;;
5620;SDS011;2832;50.864;12.186;2022-10-16T10:46:25;0.90;;;0.90;;
5620;SDS011;2832;50.864;12.186;2022-10-16T10:52:05;0.80;;;0.80;;
5620;SDS011;2832;50.864;12.186;2022-10-16T10:54:45;0.90;;;0.90;;
5620;SDS011;2832;50.864;12.186;2022-10-16T10:57:25;0.90;;;0.90;;
5620;SDS011;2832;50.864;12.186;2022-10-16T11:00:07;0.90;;;0.90;;
5620;SDS011;2832;50.864;12.186;2022-10-16T11:02:45;0.90;;;0.90;;
5620;SDS011;2832;50.864;12.186;2022-10-16T11:05:31;0.90;;;0.90;;
5620;SDS011;2832;50.864;12.186;2022-10-16T11:08:15;0.80;;;0.80;;
5620;SDS011;2832;50.864;12.186;2022-10-16T11:10:50;0.90;;;0.90;;
5620;SDS011;2832;50.864;12.186;2022-10-16T11:13:28;0.90;;;0.90;;
5620;SDS011;2832;50.864;12.186;2022-10-16T11:16:01;0.90;;;0.90;;
5620;SDS011;2832;50.864;12.186;2022-10-16T11:18:40;0.87;;;0.87;;
5620;SDS011;2832;50.864;12.186;2022-10-16T11:21:14;0.87;;;0.87;;
5620;SDS011;2832;50.864;12.186;2022-10-16T11:23:46;0.90;;;0.90;;
5620;SDS011;2832;50.864;12.186;2022-10-16T11:26:19;0.83;;;0.83;;
5620;SDS011;2832;50.864;12.186;2022-10-16T11:28:50;0.80;;;0.80;;
5620;SDS011;2832;50.864;12.186;2022-10-16T11:31:22;0.90;;;0.90;;
5620;SDS011;2832;50.864;12.186;2022-10-16T11:34:00;0.90;;;0.90;;
5620;SDS011;2832;50.864;12.186;2022-10-16T11:36:35;0.90;;;0.90;;
5620;SDS011;2832;50.864;12.186;2022-10-16T11:39:11;0.80;;;0.80;;
5620;SDS011;2832;50.864;12.186;2022-10-16T11:41:47;0.90;;;0.90;;
5620;SDS011;2832;50.864;12.186;2022-10-16T11:47:26;0.90;;;0.90;;
5620;SDS011;2832;50.864;12.186;2022-10-16T11:49:59;0.90;;;0.90;;
5620;SDS011;2832;50.864;12.186;2022-10-16T11:52:33;0.90;;;0.90;;
5620;SDS011;2832;50.864;12.186;2022-10-16T11:55:13;0.80;;;0.80;;
5620;SDS011;2832;50.864;12.186;2022-10-16T11:57:44;0.90;;;0.90;;
5620;SDS011;2832;50.864;12.186;2022-10-16T12:00:19;0.90;;;0.90;;
5620;SDS011;2832;50.864;12.186;2022-10-16T12:02:52;0.90;;;0.90;;
5620;SDS011;2832;50.864;12.186;2022-10-16T12:05:28;0.90;;;0.90;;
5620;SDS011;2832;50.864;12.186;2022-10-16T12:08:05;0.90;;;0.90;;
5620;SDS011;2832;50.864;12.186;2022-10-16T12:10:39;0.90;;;0.90;;
5620;SDS011;2832;50.864;12.186;2022-10-16T12:13:28;0.90;;;0.90;;
5620;SDS011;2832;50.864;12.186;2022-10-16T12:16:08;0.90;;;0.90;;
5620;SDS011;2832;50.864;12.186;2022-10-16T12:18:49;0.90;;;0.90;;
5620;SDS011;2832;50.864;12.186;2022-10-16T12:21:30;0.80;;;0.80;;
5620;SDS011;2832;50.864;12.186;2022-10-16T12:23:58;0.80;;;0.80;;
5620;SDS011;2832;50.864;12.186;2022-10-16T12:26:31;0.90;;;0.90;;
5620;SDS011;2832;50.864;12.186;2022-10-16T12:29:13;0.90;;;0.90;;
5620;SDS011;2832;50.864;12.186;2022-10-16T12:31:46;0.90;;;0.90;;
5620;SDS011;2832;50.864;12.186;2022-10-16T12:34:20;0.90;;;0.90;;
5620;SDS011;2832;50.864;12.186;2022-10-16T12:36:50;0.90;;;0.90;;
5620;SDS011;2832;50.864;12.186;2022-10-16T12:39:20;0.90;;;0.90;;
5620;SDS011;2832;50.864;12.186;2022-10-16T12:42:01;0.80;;;0.80;;
5620;SDS011;2832;50.864;12.186;2022-10-16T12:44:35;0.90;;;0.90;;
5620;SDS011;2832;50.864;12.186;2022-10-16T12:47:04;0.90;;;0.90;;
5620;SDS011;2832;50.864;12.186;2022-10-16T12:49:48;0.90;;;0.90;;
5620;SDS011;2832;50.864;12.186;2022-10-16T12:52:26;0.90;;;0.90;;
5620;SDS011;2832;50.864;12.186;2022-10-16T12:54:55;0.90;;;0.90;;
5620;SDS011;2832;50.864;12.186;2022-10-16T12:57:31;0.90;;;0.90;;
5620;SDS011;2832;50.864;12.186;2022-10-16T13:00:11;0.80;;;0.80;;
5620;SDS011;2832;50.864;12.186;2022-10-16T13:02:55;0.90;;;0.90;;
5620;SDS011;2832;50.864;12.186;2022-10-16T13:05:46;0.80;;;0.80;;
5620;SDS011;2832;50.864;12.186;2022-10-16T13:08:32;0.90;;;0.90;;
5620;SDS011;2832;50.864;12.186;2022-10-16T13:11:14;0.90;;;0.90;;
5620;SDS011;2832;50.864;12.186;2022-10-16T13:13:57;0.80;;;0.80;;
5620;SDS011;2832;50.864;12.186;2022-10-16T13:16:48;0.90;;;0.90;;
5620;SDS011;2832;50.864;12.186;2022-10-16T13:19:23;0.90;;;0.90;;
5620;SDS011;2832;50.864;12.186;2022-10-16T13:21:59;0.90;;;0.90;;
5620;SDS011;2832;50.864;12.186;2022-10-16T13:24:43;0.80;;;0.80;;
5620;SDS011;2832;50.864;12.186;2022-10-16T13:27:25;0.90;;;0.90;;
5620;SDS011;2832;50.864;12.186;2022-10-16T13:30:02;0.90;;;0.90;;
5620;SDS011;2832;50.864;12.186;2022-10-16T13:32:44;0.80;;;0.80;;
5620;SDS011;2832;50.864;12.186;2022-10-16T13:35:21;0.90;;;0.90;;
5620;SDS011;2832;50.864;12.186;2022-10-16T13:37:50;1.00;;;1.00;;
5620;SDS011;2832;50.864;12.186;2022-10-16T13:40:20;0.80;;;0.80;;
5620;SDS011;2832;50.864;12.186;2022-10-16T13:42:50;0.90;;;0.90;;
5620;SDS011;2832;50.864;12.186;2022-10-16T13:45:22;0.90;;;0.90;;
5620;SDS011;2832;50.864;12.186;2022-10-16T13:48:00;0.83;;;0.83;;
5620;SDS011;2832;50.864;12.186;2022-10-16T13:50:28;0.80;;;0.80;;
5620;SDS011;2832;50.864;12.186;2022-10-16T13:53:03;0.80;;;0.80;;
5620;SDS011;2832;50.864;12.186;2022-10-16T13:55:31;0.70;;;0.70;;
5620;SDS011;2832;50.864;12.186;2022-10-16T13:58:06;0.80;;;0.80;;
5620;SDS011;2832;50.864;12.186;2022-10-16T14:00:37;0.87;;;0.87;;
5620;SDS011;2832;50.864;12.186;2022-10-16T14:03:13;0.90;;;0.90;;
5620;SDS011;2832;50.864;12.186;2022-10-16T14:05:46;0.87;;;0.87;;
5620;SDS011;2832;50.864;12.186;2022-10-16T14:08:16;0.80;;;0.80;;
5620;SDS011;2832;50.864;12.186;2022-10-16T14:10:47;0.80;;;0.80;;
5620;SDS011;2832;50.864;12.186;2022-10-16T14:13:17;0.80;;;0.80;;
5620;SDS011;2832;50.864;12.186;2022-10-16T14:15:51;0.80;;;0.80;;
5620;SDS011;2832;50.864;12.186;2022-10-16T14:18:23;0.80;;;0.80;;
5620;SDS011;2832;50.864;12.186;2022-10-16T14:20:53;0.90;;;0.90;;
5620;SDS011;2832;50.864;12.186;2022-10-16T14:23:22;0.80;;;0.80;;
5620;SDS011;2832;50.864;12.186;2022-10-16T14:26:05;0.90;;;0.90;;
5620;SDS011;2832;50.864;12.186;2022-10-16T14:28:40;0.80;;;0.80;;
5620;SDS011;2832;50.864;12.186;2022-10-16T14:33:59;0.90;;;0.90;;
5620;SDS011;2832;50.864;12.186;2022-10-16T14:36:28;0.90;;;0.90;;
5620;SDS011;2832;50.864;12.186;2022-10-16T14:39:00;0.90;;;0.90;;
5620;SDS011;2832;50.864;12.186;2022-10-16T14:41:33;0.90;;;0.90;;
5620;SDS011;2832;50.864;12.186;2022-10-16T14:44:10;0.90;;;0.90;;
5620;SDS011;2832;50.864;12.186;2022-10-16T14:46:42;0.90;;;0.90;;
5620;SDS011;2832;50.864;12.186;2022-10-16T14:49:14;0.80;;;0.80;;
5620;SDS011;2832;50.864;12.186;2022-10-16T14:51:45;0.83;;;0.83;;
5620;SDS011;2832;50.864;12.186;2022-10-16T14:54:14;0.87;;;0.87;;
5620;SDS011;2832;50.864;12.186;2022-10-16T14:56:45;0.80;;;0.80;;
5620;SDS011;2832;50.864;12.186;2022-10-16T14:59:17;0.80;;;0.80;;
5620;SDS011;2832;50.864;12.186;2022-10-16T15:01:50;1.00;;;1.00;;
5620;SDS011;2832;50.864;12.186;2022-10-16T15:04:18;0.90;;;0.90;;
5620;SDS011;2832;50.864;12.186;2022-10-16T15:06:47;0.80;;;0.80;;
5620;SDS011;2832;50.864;12.186;2022-10-16T15:09:15;0.80;;;0.80;;
5620;SDS011;2832;50.864;12.186;2022-10-16T15:11:43;0.93;;;0.93;;
5620;SDS011;2832;50.864;12.186;2022-10-16T15:14:12;0.90;;;0.90;;
5620;SDS011;2832;50.864;12.186;2022-10-16T15:16:41;0.90;;;0.90;;
5620;SDS011;2832;50.864;12.186;2022-10-16T15:19:10;0.90;;;0.90;;
5620;SDS011;2832;50.864;12.186;2022-10-16T15:21:38;0.80;;;0.80;;
5620;SDS011;2832;50.864;12.186;2022-10-16T15:24:08;0.80;;;0.80;;
5620;SDS011;2832;50.864;12.186;2022-10-16T15:26:38;0.80;;;0.80;;
5620;SDS011;2832;50.864;12.186;2022-10-16T15:29:06;0.80;;;0.80;;
5620;SDS011;2832;50.864;12.186;2022-10-16T15:31:34;0.90;;;0.90;;
5620;SDS011;2832;50.864;12.186;2022-10-16T15:34:03;0.70;;;0.70;;
5620;SDS011;2832;50.864;12.186;2022-10-16T15:36:34;0.90;;;0.90;;
5620;SDS011;2832;50.864;12.186;2022-10-16T15:39:03;0.80;;;0.80;;
5620;SDS011;2832;50.864;12.186;2022-10-16T15:41:32;0.80;;;0.80;;
5620;SDS011;2832;50.864;12.186;2022-10-16T15:44:00;0.90;;;0.90;;
5620;SDS011;2832;50.864;12.186;2022-10-16T15:46:28;0.90;;;0.90;;